Time;durP1;ratioP1;P1;durP2;ratioP2;P2;SDS_P1;SDS_P2;PMS_P1;PMS_P2;Temp;Humidity;BMP_temperature;BMP_pressure;BME280_temperature;BME280_humidity;BME280_pressure;Samples;Min_cycle;Max_cycle;Signal;HPM_P1;HPM_P2
2022/07/21 00:00:16;;;;;;;1.65;1.55;;;18.40;99.90;;;;;;5075877;28;20142;-75
2022/07/21 00:02:48;;;;;;;9.55;1.70;;;18.40;99.90;;;;;;5075583;28;20048;-75
2022/07/21 00:05:16;;;;;;;1.73;1.50;;;18.40;99.90;;;;;;5075579;28;20048;-76
2022/07/21 00:07:43;;;;;;;1.40;1.30;;;18.40;99.90;;;;;;5093248;28;20052;-76
2022/07/21 00:10:12;;;;;;;3.55;1.38;;;18.40;99.90;;;;;;5075155;28;20044;-74
2022/07/21 00:12:40;;;;;;;1.70;1.27;;;18.30;99.90;;;;;;5075458;28;20048;-75
2022/07/21 00:15:08;;;;;;;8.23;1.23;;;18.30;99.90;;;;;;5074986;28;20148;-75
2022/07/21 00:17:35;;;;;;;4.32;1.10;;;18.30;99.90;;;;;;5074924;28;20044;-75
2022/07/21 00:20:07;;;;;;;0.90;0.88;;;18.30;99.90;;;;;;5075036;28;20573;-75
2022/07/21 00:22:35;;;;;;;2.63;1.02;;;18.30;99.90;;;;;;5074818;28;20055;-75
2022/07/21 00:25:03;;;;;;;2.45;1.23;;;18.30;99.90;;;;;;5092969;28;20054;-74
2022/07/21 00:27:30;;;;;;;1.63;0.93;;;18.30;99.90;;;;;;5092770;28;20142;-74
2022/07/21 00:29:58;;;;;;;1.05;1.05;;;18.30;99.90;;;;;;5092889;28;20063;-74
2022/07/21 00:32:27;;;;;;;2.97;1.10;;;18.30;99.90;;;;;;5093214;28;20097;-74
2022/07/21 00:34:54;;;;;;;3.35;1.40;;;18.30;99.90;;;;;;5074577;28;20070;-75
2022/07/21 00:37:23;;;;;;;3.03;1.15;;;18.30;99.90;;;;;;5092794;28;20152;-74
2022/07/21 00:39:52;;;;;;;3.92;1.00;;;18.30;99.90;;;;;;5057808;28;20147;-75
2022/07/21 00:42:24;;;;;;;3.50;1.15;;;18.20;99.90;;;;;;5074505;28;20036;-74
2022/07/21 00:44:52;;;;;;;1.15;0.90;;;18.20;99.90;;;;;;5092693;28;20070;-74
2022/07/21 00:47:20;;;;;;;1.70;1.60;;;18.20;99.90;;;;;;5092820;28;20626;-73
2022/07/21 00:49:48;;;;;;;5.03;1.25;;;18.20;99.90;;;;;;5074653;28;20054;-74
2022/07/21 00:52:15;;;;;;;1.17;1.13;;;18.20;99.90;;;;;;5092611;28;20142;-74
2022/07/21 00:54:45;;;;;;;1.40;1.30;;;18.30;99.90;;;;;;5092886;28;20101;-74
2022/07/21 00:57:14;;;;;;;1.08;1.08;;;18.20;99.90;;;;;;5057636;28;20084;-74
2022/07/21 00:59:42;;;;;;;3.95;1.40;;;18.20;99.90;;;;;;5057611;28;20052;-75
2022/07/21 01:02:10;;;;;;;1.27;1.23;;;18.20;99.90;;;;;;5074274;28;20048;-75
2022/07/21 01:04:38;;;;;;;3.72;1.13;;;18.20;99.90;;;;;;5057812;28;20071;-75
2022/07/21 01:07:07;;;;;;;3.25;1.10;;;18.20;99.90;;;;;;5092307;28;20109;-75
2022/07/21 01:09:35;;;;;;;5.35;1.45;;;18.20;99.90;;;;;;5057401;28;20148;-75
2022/07/21 01:12:05;;;;;;;3.45;1.33;;;18.10;99.90;;;;;;5074036;28;20056;-75
2022/07/21 01:14:33;;;;;;;3.83;1.38;;;18.10;99.90;;;;;;5092606;28;20059;-75
2022/07/21 01:17:02;;;;;;;7.13;1.40;;;18.10;99.90;;;;;;5057325;28;20058;-74
2022/07/21 01:19:30;;;;;;;2.05;1.25;;;18.10;99.90;;;;;;5073734;28;20506;-74
2022/07/21 01:21:59;;;;;;;2.30;1.20;;;18.10;99.90;;;;;;5073788;28;20097;-74
2022/07/21 01:24:26;;;;;;;1.40;1.30;;;18.10;99.90;;;;;;5073706;28;20068;-74
2022/07/21 01:26:55;;;;;;;2.72;1.30;;;18.10;99.90;;;;;;5057116;28;20073;-74
2022/07/21 01:29:22;;;;;;;5.25;1.65;;;18.00;99.90;;;;;;5057143;28;20471;-74
2022/07/21 01:31:51;;;;;;;4.75;1.48;;;18.00;99.90;;;;;;5073944;28;20127;-73
2022/07/21 01:34:19;;;;;;;1.77;1.67;;;18.00;99.90;;;;;;5073621;28;20075;-74
2022/07/21 01:36:47;;;;;;;2.10;1.40;;;18.00;99.90;;;;;;5073517;28;20516;-74
2022/07/21 01:42:01;;;;;;;2.63;1.40;;;18.00;99.90;;;;;;5073585;28;20141;-75
2022/07/21 01:44:29;;;;;;;1.73;1.30;;;18.00;99.90;;;;;;5073544;28;20397;-74
2022/07/21 01:46:56;;;;;;;6.82;1.50;;;18.00;99.90;;;;;;5073597;28;20559;-75
2022/07/21 01:49:24;;;;;;;1.42;1.33;;;18.00;99.90;;;;;;5073381;28;20126;-75
2022/07/21 01:51:52;;;;;;;3.10;1.60;;;18.00;99.90;;;;;;5091368;28;20058;-75
2022/07/21 01:54:21;;;;;;;1.52;1.40;;;18.00;99.90;;;;;;5091330;28;20130;-73
2022/07/21 01:56:48;;;;;;;2.40;1.50;;;18.00;99.90;;;;;;5072947;28;20514;-74
2022/07/21 01:59:16;;;;;;;4.05;1.75;;;18.00;99.90;;;;;;5056388;28;20055;-74
2022/07/21 02:01:43;;;;;;;3.17;1.70;;;18.00;99.90;;;;;;5091251;28;20048;-74
2022/07/21 02:04:11;;;;;;;2.55;1.45;;;18.00;99.90;;;;;;5091472;28;20047;-74
2022/07/21 02:06:38;;;;;;;2.22;1.77;;;18.00;99.90;;;;;;5072351;28;20042;-73
2022/07/21 02:09:08;;;;;;;2.33;1.88;;;18.00;99.90;;;;;;5073125;28;20047;-74
2022/07/21 02:11:37;;;;;;;1.52;1.42;;;18.00;99.90;;;;;;5090715;28;20323;-74
2022/07/21 02:14:05;;;;;;;2.63;1.55;;;18.00;99.90;;;;;;5056029;28;20061;-75
2022/07/21 02:16:32;;;;;;;2.45;1.52;;;18.00;99.90;;;;;;5091001;28;20052;-74
2022/07/21 02:19:01;;;;;;;1.80;1.70;;;18.00;99.90;;;;;;5056241;28;20047;-74
2022/07/21 02:21:28;;;;;;;5.90;1.88;;;18.00;99.90;;;;;;5055962;28;20532;-73
2022/07/21 02:23:56;;;;;;;2.10;1.77;;;18.00;99.90;;;;;;5090999;28;20052;-74
2022/07/21 02:26:24;;;;;;;2.55;1.67;;;18.00;99.90;;;;;;5056066;28;20063;-74
2022/07/21 02:28:53;;;;;;;3.35;1.80;;;18.00;99.90;;;;;;5055476;28;20440;-74
2022/07/21 02:31:20;;;;;;;2.00;1.75;;;18.00;99.90;;;;;;5054812;28;20051;-74
2022/07/21 02:33:47;;;;;;;3.95;2.00;;;18.00;99.90;;;;;;5072829;28;20070;-73
2022/07/21 02:36:17;;;;;;;2.10;2.00;;;18.00;99.90;;;;;;5090433;28;20055;-74
2022/07/21 02:38:44;;;;;;;3.10;2.17;;;18.10;99.90;;;;;;5055945;28;20059;-74
2022/07/21 02:41:11;;;;;;;3.40;1.88;;;18.10;99.90;;;;;;5090722;28;20050;-74
2022/07/21 02:43:39;;;;;;;3.58;2.17;;;18.10;99.90;;;;;;5090639;28;20047;-74
2022/07/21 02:46:08;;;;;;;3.25;1.83;;;18.10;99.90;;;;;;5055911;28;20070;-74
2022/07/21 02:48:36;;;;;;;3.20;2.20;;;18.10;99.90;;;;;;5072309;28;20047;-74
2022/07/21 02:51:03;;;;;;;2.95;1.75;;;18.10;99.90;;;;;;5072751;28;20486;-74
2022/07/21 02:53:31;;;;;;;2.10;2.00;;;18.10;99.90;;;;;;5071807;28;20052;-75
2022/07/21 02:55:58;;;;;;;2.75;2.33;;;18.10;99.90;;;;;;5072620;28;20527;-75
2022/07/21 02:58:27;;;;;;;2.42;2.30;;;18.20;99.90;;;;;;5072134;28;20097;-74
2022/07/21 03:00:57;;;;;;;3.22;2.15;;;18.20;99.90;;;;;;5089713;28;20142;-75
2022/07/21 03:03:27;;;;;;;8.45;3.53;;;18.20;99.90;;;;;;5055474;28;20081;-75
2022/07/21 03:05:55;;;;;;;2.63;2.22;;;18.20;99.90;;;;;;5055469;28;20101;-74
2022/07/21 03:08:24;;;;;;;3.70;2.35;;;18.30;99.90;;;;;;5072182;28;20079;-75
2022/07/21 03:10:52;;;;;;;3.03;2.78;;;18.30;99.90;;;;;;5055791;28;20059;-74
2022/07/21 03:13:20;;;;;;;3.20;2.90;;;18.30;99.90;;;;;;5072438;28;20047;-74
2022/07/21 03:15:47;;;;;;;3.25;2.60;;;18.30;99.90;;;;;;5090482;28;20048;-74
2022/07/21 03:18:15;;;;;;;2.95;2.60;;;18.30;99.90;;;;;;5074782;28;20500;-74
2022/07/21 03:20:44;;;;;;;6.13;3.00;;;18.40;99.90;;;;;;5076234;28;20052;-74
2022/07/21 03:23:13;;;;;;;4.03;2.72;;;18.40;99.90;;;;;;5075955;28;20079;-74
2022/07/21 03:25:40;;;;;;;3.05;2.85;;;18.40;99.90;;;;;;5076591;28;20138;-74
2022/07/21 03:28:08;;;;;;;4.72;3.90;;;18.50;99.90;;;;;;5075685;28;20397;-75
2022/07/21 03:30:36;;;;;;;3.40;3.08;;;18.50;99.90;;;;;;5094420;28;20530;-75
2022/07/21 03:33:05;;;;;;;5.93;3.17;;;18.50;99.90;;;;;;5076125;28;20040;-74
2022/07/21 03:35:33;;;;;;;3.63;2.90;;;18.50;99.90;;;;;;5094335;28;20146;-74
2022/07/21 03:38:02;;;;;;;3.47;3.13;;;18.60;99.90;;;;;;5075423;28;20143;-73
2022/07/21 03:40:32;;;;;;;3.97;3.00;;;18.60;99.90;;;;;;5075469;28;20555;-75
2022/07/21 03:43:02;;;;;;;6.15;3.33;;;18.60;99.90;;;;;;5093766;28;20044;-75
2022/07/21 03:45:31;;;;;;;3.97;3.42;;;18.60;99.90;;;;;;5075771;28;20151;-75
2022/07/21 03:47:59;;;;;;;4.03;3.63;;;18.60;99.90;;;;;;5093676;28;20056;-75
2022/07/21 03:50:27;;;;;;;6.85;3.78;;;18.70;99.90;;;;;;5093959;28;20059;-75
2022/07/21 03:52:54;;;;;;;4.82;3.78;;;18.70;99.90;;;;;;5093389;28;20495;-75
2022/07/21 03:55:24;;;;;;;3.92;3.63;;;18.80;99.90;;;;;;5058447;28;20048;-75
2022/07/21 03:57:54;;;;;;;5.05;4.65;;;18.80;99.90;;;;;;5092946;28;20047;-75
2022/07/21 04:00:25;;;;;;;4.75;3.53;;;18.80;99.90;;;;;;5075356;28;20050;-75
2022/07/21 04:02:53;;;;;;;4.93;3.92;;;18.90;99.90;;;;;;5058069;28;20068;-74
2022/07/21 04:05:20;;;;;;;6.25;3.60;;;18.90;99.90;;;;;;5093700;28;20443;-75
2022/07/21 04:07:50;;;;;;;4.60;4.20;;;19.00;99.90;;;;;;5075151;28;20146;-74
2022/07/21 04:10:19;;;;;;;5.00;3.78;;;19.00;99.90;;;;;;5075385;28;20060;-75
2022/07/21 04:12:48;;;;;;;5.20;3.85;;;19.10;99.90;;;;;;5093141;28;20542;-74
2022/07/21 04:15:16;;;;;;;6.97;4.47;;;19.10;99.90;;;;;;5093531;28;20050;-73
2022/07/21 04:17:44;;;;;;;4.93;4.00;;;19.20;99.90;;;;;;5074733;28;20125;-74
2022/07/21 04:20:13;;;;;;;5.38;4.85;;;19.30;99.90;;;;;;5057653;28;20147;-75
2022/07/21 04:22:41;;;;;;;4.40;4.00;;;19.30;99.90;;;;;;5093632;28;20054;-75
2022/07/21 04:25:09;;;;;;;5.57;5.07;;;19.40;99.90;;;;;;5093553;28;20047;-75
2022/07/21 04:27:38;;;;;;;5.10;4.43;;;19.40;99.90;;;;;;5074885;28;20056;-74
2022/07/21 04:30:11;;;;;;;7.97;4.55;;;19.50;99.90;;;;;;5074041;28;20068;-75
2022/07/21 04:32:38;;;;;;;6.20;5.70;;;19.60;99.90;;;;;;5092526;28;20097;-74
2022/07/21 04:35:07;;;;;;;6.88;5.80;;;19.60;99.90;;;;;;5092747;28;20058;-75
2022/07/21 04:37:34;;;;;;;4.70;4.28;;;19.70;99.90;;;;;;5092830;28;20044;-75
2022/07/21 04:40:02;;;;;;;5.03;4.63;;;19.70;99.90;;;;;;5074382;28;20059;-75
2022/07/21 04:42:31;;;;;;;5.60;4.70;;;19.90;99.90;;;;;;5092284;28;20052;-75
2022/07/21 04:44:59;;;;;;;9.95;6.90;;;20.00;99.90;;;;;;5073929;28;20048;-74
2022/07/21 04:47:28;;;;;;;16.80;5.80;;;20.00;99.90;;;;;;5092037;28;20048;-75
2022/07/21 04:49:55;;;;;;;10.77;5.53;;;20.10;99.90;;;;;;5092657;28;20059;-75
2022/07/21 04:52:23;;;;;;;12.63;6.38;;;20.20;99.90;;;;;;5092032;28;20076;-75
2022/07/21 04:54:50;;;;;;;31.60;7.18;;;20.20;99.90;;;;;;5073890;28;20133;-74
2022/07/21 04:57:18;;;;;;;7.30;6.60;;;20.30;99.90;;;;;;5073806;28;20585;-75
2022/07/21 04:59:45;;;;;;;6.30;5.63;;;20.30;99.90;;;;;;5056985;28;20054;-74
2022/07/21 05:02:13;;;;;;;6.30;5.07;;;20.40;99.90;;;;;;5073537;28;20675;-75
2022/07/21 05:04:42;;;;;;;7.63;5.40;;;20.50;99.90;;;;;;5074136;28;20051;-75
2022/07/21 05:07:10;;;;;;;10.88;5.95;;;20.50;99.90;;;;;;5092160;28;20044;-74
2022/07/21 05:09:41;;;;;;;17.55;7.03;;;20.70;99.90;;;;;;5091993;28;20087;-74
2022/07/21 05:12:09;;;;;;;7.75;6.30;;;20.70;99.90;;;;;;5092116;28;20040;-74
2022/07/21 05:14:36;;;;;;;10.00;6.35;;;20.80;99.90;;;;;;5074246;28;20044;-74
2022/07/21 05:17:04;;;;;;;7.85;5.93;;;20.90;99.90;;;;;;5091507;28;20428;-73
2022/07/21 05:19:31;;;;;;;6.93;6.32;;;20.90;99.90;;;;;;5092175;28;20101;-75
2022/07/21 05:22:00;;;;;;;5.72;5.30;;;21.00;99.90;;;;;;5091542;28;20052;-75
2022/07/21 05:24:27;;;;;;;7.95;5.35;;;21.10;99.90;;;;;;5073905;28;20055;-75
2022/07/21 05:26:55;;;;;;;6.97;6.38;;;21.20;99.90;;;;;;5091824;28;20047;-74
2022/07/21 05:29:22;;;;;;;6.75;6.13;;;21.40;99.90;;;;;;5073535;28;20579;-75
2022/07/21 05:31:50;;;;;;;6.40;5.72;;;21.50;99.90;;;;;;5073236;28;20044;-74
2022/07/21 05:34:17;;;;;;;7.05;6.35;;;21.70;99.90;;;;;;5073401;28;20599;-76
2022/07/21 05:36:45;;;;;;;7.70;7.00;;;21.80;99.90;;;;;;5056721;28;20059;-75
2022/07/21 05:39:14;;;;;;;6.68;6.13;;;22.00;99.90;;;;;;5073342;28;20127;-76
2022/07/21 05:41:41;;;;;;;6.43;5.78;;;22.30;99.90;;;;;;5090409;28;20500;-75
2022/07/21 05:44:09;;;;;;;9.20;6.03;;;22.80;99.90;;;;;;5056810;28;20070;-75
2022/07/21 05:46:36;;;;;;;9.65;6.30;;;23.20;99.90;;;;;;5091120;28;20052;-75
2022/07/21 05:49:04;;;;;;;7.57;5.93;;;23.80;99.90;;;;;;5091763;28;20458;-75
2022/07/21 05:51:31;;;;;;;6.82;5.97;;;24.30;99.90;;;;;;5072918;28;20536;-75
2022/07/21 05:53:59;;;;;;;6.20;5.60;;;24.70;99.90;;;;;;5056436;28;20093;-76
2022/07/21 05:56:28;;;;;;;6.70;6.05;;;25.00;99.90;;;;;;5091395;28;20058;-75
2022/07/21 05:58:55;;;;;;;7.00;6.38;;;25.30;99.90;;;;;;5091354;28;20131;-76
2022/07/21 06:01:24;;;;;;;6.93;5.70;;;25.70;99.90;;;;;;5056066;28;20502;-76
2022/07/21 06:03:52;;;;;;;6.25;5.20;;;26.00;99.90;;;;;;5056761;28;20048;-76
2022/07/21 06:06:22;;;;;;;6.10;5.50;;;26.40;99.90;;;;;;5072795;28;20557;-76
2022/07/21 06:08:51;;;;;;;6.40;5.80;;;26.80;99.90;;;;;;5090915;28;20052;-75
2022/07/21 06:11:21;;;;;;;7.30;6.00;;;27.20;99.90;;;;;;5072782;28;20352;-77
2022/07/21 06:13:50;;;;;;;13.70;7.15;;;27.70;99.90;;;;;;5072327;28;20419;-76
2022/07/21 06:16:19;;;;;;;6.65;6.15;;;28.10;99.90;;;;;;5090804;28;20047;-75
2022/07/21 06:18:46;;;;;;;6.63;6.22;;;28.20;99.90;;;;;;5056298;28;20072;-76
2022/07/21 06:21:14;;;;;;;7.10;6.40;;;28.60;99.90;;;;;;5090251;28;20494;-76
2022/07/21 06:23:41;;;;;;;7.90;7.20;;;28.70;99.90;;;;;;5072534;28;20161;-74
2022/07/21 06:26:09;;;;;;;8.13;6.05;;;29.00;99.90;;;;;;5072510;28;20143;-77
2022/07/21 06:28:36;;;;;;;8.02;7.15;;;29.20;99.90;;;;;;5091056;28;20048;-77
2022/07/21 06:31:06;;;;;;;8.13;7.32;;;29.30;99.90;;;;;;5072435;28;20193;-76
2022/07/21 06:33:33;;;;;;;9.07;8.18;;;29.50;99.90;;;;;;5090047;28;20439;-75
2022/07/21 06:36:01;;;;;;;7.05;6.40;;;29.70;98.70;;;;;;5090412;28;20097;-76
2022/07/21 06:38:29;;;;;;;6.70;6.28;;;29.90;97.80;;;;;;5055817;28;20082;-75
2022/07/21 06:40:56;;;;;;;7.68;6.97;;;30.10;97.90;;;;;;5090216;28;20052;-76
2022/07/21 06:43:24;;;;;;;7.00;6.28;;;30.30;96.50;;;;;;5091133;28;20048;-77
2022/07/21 06:45:52;;;;;;;10.45;6.72;;;30.60;95.20;;;;;;5091060;28;20072;-78
2022/07/21 06:48:22;;;;;;;7.57;6.75;;;30.80;93.50;;;;;;5090622;28;20079;-78
2022/07/21 06:50:49;;;;;;;6.53;6.00;;;31.00;92.60;;;;;;5091031;28;20139;-78
2022/07/21 06:53:18;;;;;;;7.68;6.82;;;31.20;92.00;;;;;;5094566;28;20618;-80
2022/07/21 06:55:45;;;;;;;9.27;6.72;;;31.20;90.90;;;;;;5094901;28;20449;-78
2022/07/21 06:58:15;;;;;;;8.05;6.10;;;31.40;90.60;;;;;;5094791;28;20059;-79
2022/07/21 07:00:43;;;;;;;6.38;5.88;;;31.50;89.40;;;;;;5076540;28;20052;-76
2022/07/21 07:03:12;;;;;;;8.98;6.82;;;31.70;89.70;;;;;;5095068;28;20143;-76
2022/07/21 07:05:41;;;;;;;7.82;7.03;;;31.80;86.70;;;;;;5059971;28;20461;-78
2022/07/21 07:08:09;;;;;;;8.10;6.70;;;31.90;85.80;;;;;;5076199;28;20048;-77
2022/07/21 07:10:37;;;;;;;8.10;6.78;;;32.10;85.90;;;;;;5094455;28;20135;-79
2022/07/21 07:13:04;;;;;;;7.93;7.15;;;32.30;85.30;;;;;;5094592;28;20054;-77
2022/07/21 07:15:32;;;;;;;7.10;6.57;;;32.50;85.80;;;;;;5076482;28;20144;-76
2022/07/21 07:17:59;;;;;;;7.13;6.53;;;32.60;83.80;;;;;;5094577;28;20181;-77
2022/07/21 07:20:27;;;;;;;7.07;6.47;;;32.90;82.30;;;;;;5076226;28;20074;-78
2022/07/21 07:22:55;;;;;;;6.93;6.43;;;33.00;81.20;;;;;;5094246;28;20044;-77
2022/07/21 07:25:24;;;;;;;7.57;6.85;;;33.20;79.20;;;;;;5094061;28;20595;-76
2022/07/21 07:27:54;;;;;;;12.32;6.88;;;33.30;78.00;;;;;;5093921;28;20135;-77
2022/07/21 07:30:21;;;;;;;14.32;7.63;;;33.50;78.90;;;;;;5094114;28;20569;-77
2022/07/21 07:32:49;;;;;;;6.88;6.25;;;33.70;77.00;;;;;;5075830;28;20055;-76
2022/07/21 07:35:17;;;;;;;7.82;6.65;;;33.80;75.40;;;;;;5094074;28;20120;-78
2022/07/21 07:37:46;;;;;;;7.43;6.70;;;34.10;74.70;;;;;;5094029;28;20055;-77
2022/07/21 07:40:19;;;;;;;7.90;6.88;;;34.30;74.00;;;;;;5059165;28;20113;-78
2022/07/21 07:42:47;;;;;;;6.70;6.20;;;34.40;73.20;;;;;;5087525;28;20054;-78
2022/07/21 07:45:15;;;;;;;8.48;7.10;;;34.50;71.80;;;;;;5084601;28;20045;-78
2022/07/21 07:47:44;;;;;;;11.48;6.53;;;34.70;71.00;;;;;;5056155;28;20389;-79
2022/07/21 07:50:14;;;;;;;7.90;7.28;;;34.80;69.60;;;;;;5073901;28;20045;-77
2022/07/21 07:52:44;;;;;;;7.32;6.65;;;35.10;68.50;;;;;;5073057;28;20049;-77
2022/07/21 07:55:12;;;;;;;8.15;6.88;;;35.30;68.90;;;;;;5039141;28;20110;-78
2022/07/21 07:57:43;;;;;;;7.93;6.55;;;35.60;68.90;;;;;;5038725;28;20090;-77
2022/07/21 08:00:14;;;;;;;8.32;7.22;;;35.60;67.30;;;;;;5085386;28;20424;-78
2022/07/21 08:02:42;;;;;;;7.85;6.65;;;35.80;67.50;;;;;;5073112;28;20134;-78
2022/07/21 08:05:11;;;;;;;8.10;6.40;;;35.90;67.00;;;;;;5086611;28;20063;-84
2022/07/21 08:07:39;;;;;;;10.45;6.80;;;36.00;66.00;;;;;;5074215;28;20041;-82
2022/07/21 08:10:08;;;;;;;6.97;6.28;;;36.20;65.00;;;;;;5073729;28;20184;-82
2022/07/21 08:12:36;;;;;;;7.70;6.60;;;36.30;64.90;;;;;;5055080;28;20559;-80
2022/07/21 08:15:06;;;;;;;6.90;6.40;;;36.60;65.20;;;;;;5093331;28;20044;-85
2022/07/21 08:17:34;;;;;;;6.40;5.90;;;36.70;63.30;;;;;;5073769;28;20139;-80
2022/07/21 08:20:02;;;;;;;7.18;6.53;;;36.70;63.00;;;;;;5093796;28;20048;-81
2022/07/21 08:22:30;;;;;;;6.72;6.13;;;36.90;62.50;;;;;;5092694;28;20091;-82
2022/07/21 08:24:58;;;;;;;6.32;5.93;;;37.10;62.10;;;;;;5091086;28;20043;-82
2022/07/21 08:27:26;;;;;;;7.00;6.50;;;37.20;61.60;;;;;;5086922;28;20144;-82
2022/07/21 08:29:56;;;;;;;6.57;5.97;;;37.30;61.10;;;;;;5065214;28;20075;-81
2022/07/21 08:32:24;;;;;;;11.02;6.07;;;37.50;58.90;;;;;;5086529;28;20076;-81
2022/07/21 08:34:52;;;;;;;7.05;5.50;;;37.70;58.90;;;;;;5066168;28;20594;-82
2022/07/21 08:37:21;;;;;;;6.22;5.63;;;37.90;59.50;;;;;;5054561;28;20051;-81
2022/07/21 08:39:48;;;;;;;6.82;6.00;;;38.10;58.60;;;;;;5048840;28;20438;-82
2022/07/21 08:42:16;;;;;;;8.43;7.63;;;38.10;58.40;;;;;;5056527;28;20051;-82
2022/07/21 08:44:44;;;;;;;6.20;5.70;;;38.20;57.80;;;;;;5091265;28;20048;-80
2022/07/21 08:47:12;;;;;;;6.32;5.80;;;38.20;57.50;;;;;;5092976;28;20040;-82
2022/07/21 08:49:41;;;;;;;5.50;5.03;;;38.30;56.90;;;;;;5092712;28;20058;-82
2022/07/21 08:52:09;;;;;;;6.30;5.80;;;38.50;57.20;;;;;;5085763;28;20072;-85
2022/07/21 08:54:36;;;;;;;9.00;8.30;;;38.50;56.20;;;;;;5093171;28;20508;-86
2022/07/21 08:57:04;;;;;;;7.82;6.22;;;38.50;56.20;;;;;;5092915;28;20052;-85
2022/07/21 08:59:32;;;;;;;7.43;6.20;;;38.70;56.20;;;;;;5075215;28;20511;-85
2022/07/21 09:02:00;;;;;;;10.52;5.38;;;38.80;56.20;;;;;;5093189;28;20044;-84
2022/07/21 09:04:29;;;;;;;6.60;5.95;;;39.00;56.30;;;;;;5058321;28;20097;-85
2022/07/21 09:07:00;;;;;;;10.73;6.53;;;39.10;54.80;;;;;;5094098;28;20515;-84
2022/07/21 09:09:29;;;;;;;;;;;39.10;55.60;;;;;;5097017;28;20056;-85
2022/07/21 09:11:58;;;;;;;7.18;6.47;;;39.30;54.20;;;;;;5097935;28;20308;-86
2022/07/21 09:14:27;;;;;;;6.15;5.55;;;39.30;54.90;;;;;;5093850;28;20058;-85
2022/07/21 09:16:56;;;;;;;5.97;5.65;;;39.50;55.00;;;;;;5090147;28;20040;-85
2022/07/21 09:19:26;;;;;;;7.43;5.70;;;39.80;55.00;;;;;;5087149;28;20059;-85
2022/07/21 09:21:55;;;;;;;7.47;5.65;;;39.90;53.40;;;;;;5080992;28;20052;-85
2022/07/21 09:24:29;;;;;;;7.55;5.53;;;40.00;52.90;;;;;;5063704;28;20086;-85
2022/07/21 09:27:06;;;;;;;5.93;5.53;;;40.10;53.30;;;;;;5074951;28;20115;-85
2022/07/21 09:29:45;;;;;;;6.00;5.35;;;40.30;52.40;;;;;;5075613;28;20052;-85
2022/07/21 09:32:31;;;;;;;5.97;5.40;;;40.50;50.80;;;;;;5081466;28;20139;-83
2022/07/21 09:35:01;;;;;;;5.82;5.43;;;40.50;51.50;;;;;;5070524;28;20503;-83
2022/07/21 09:37:31;;;;;;;5.03;4.72;;;40.50;51.10;;;;;;5091217;28;20059;-83
2022/07/21 09:40:06;;;;;;;5.78;5.10;;;40.60;51.10;;;;;;5088671;28;20082;-83
2022/07/21 09:42:37;;;;;;;11.20;5.85;;;40.60;51.10;;;;;;5073512;28;20093;-82
2022/07/21 09:45:07;;;;;;;6.18;5.60;;;40.60;50.40;;;;;;5083586;28;20413;-83
2022/07/21 09:47:37;;;;;;;21.10;7.85;;;40.60;51.30;;;;;;5056033;28;20140;-82
2022/07/21 09:50:06;;;;;;;24.52;8.05;;;40.60;51.60;;;;;;5088273;28;20047;-82
2022/07/21 09:52:35;;;;;;;23.02;8.57;;;40.70;53.00;;;;;;5061075;28;20104;-82
2022/07/21 09:55:07;;;;;;;6.40;5.85;;;40.90;51.60;;;;;;5064225;28;20046;-83
2022/07/21 09:57:34;;;;;;;7.03;5.22;;;41.00;50.70;;;;;;5079452;28;20615;-85
2022/07/21 10:00:05;;;;;;;8.48;5.45;;;41.00;48.90;;;;;;5057692;28;20084;-82
2022/07/21 10:02:34;;;;;;;9.55;6.43;;;41.10;51.30;;;;;;5075838;28;20076;-83
2022/07/21 10:05:05;;;;;;;9.90;6.32;;;41.20;50.30;;;;;;5073156;28;20097;-85
2022/07/21 10:07:33;;;;;;;;;;;41.20;50.70;;;;;;5080699;28;20051;-85
2022/07/21 10:10:01;;;;;;;21.67;8.18;;;41.30;50.80;;;;;;5087296;28;19928;-86
2022/07/21 10:12:32;;;;;;;12.80;6.20;;;41.30;50.20;;;;;;5092264;28;20131;-81
2022/07/21 10:15:02;;;;;;;10.82;5.53;;;41.40;49.20;;;;;;5097485;28;20056;-81
2022/07/21 10:17:31;;;;;;;;;;;41.60;49.60;;;;;;5072201;28;20142;-85
2022/07/21 10:20:06;;;;;;;5.80;5.28;;;41.80;48.50;;;;;;5072698;28;19935;-84
2022/07/21 10:22:49;;;;;;;14.60;6.45;;;41.80;48.20;;;;;;5046531;28;20048;-85
2022/07/21 10:25:17;;;;;;;19.17;7.00;;;41.90;49.50;;;;;;5071088;28;20097;-82
2022/07/21 10:28:18;;;;;;;6.95;5.78;;;42.00;49.50;;;;;;5073987;28;20058;-83
2022/07/21 10:30:47;;;;;;;7.03;6.15;;;42.10;48.80;;;;;;5077828;28;20102;-85
2022/07/21 10:33:16;;;;;;;7.05;6.05;;;42.20;48.70;;;;;;5054610;28;20121;-83
2022/07/21 10:35:45;;;;;;;6.18;5.78;;;42.30;46.40;;;;;;5065981;28;20064;-84
2022/07/21 10:38:29;;;;;;;9.43;6.35;;;42.40;47.30;;;;;;5072523;28;20488;-84
2022/07/21 10:40:57;;;;;;;9.18;6.18;;;42.60;47.20;;;;;;5086690;28;20071;-83
2022/07/21 10:43:43;;;;;;;6.65;6.07;;;42.70;46.10;;;;;;5069542;28;20055;-83
2022/07/21 10:46:40;;;;;;;7.05;6.50;;;42.70;46.10;;;;;;5068769;28;20497;-84
2022/07/21 10:49:09;;;;;;;6.18;5.78;;;42.80;46.10;;;;;;5068570;28;20077;-81
2022/07/21 10:51:38;;;;;;;7.10;6.60;;;42.80;44.80;;;;;;5087008;28;20520;-85
2022/07/21 10:54:36;;;;;;;7.25;6.60;;;42.80;45.40;;;;;;5065423;28;20463;-82
2022/07/21 10:57:26;;;;;;;7.45;6.95;;;42.90;45.50;;;;;;5049163;28;20425;-81
2022/07/21 11:00:33;;;;;;;7.50;6.72;;;43.20;45.70;;;;;;5070152;28;20044;-81
2022/07/21 11:03:03;;;;;;;10.45;7.60;;;43.20;45.80;;;;;;5068970;28;20059;-81
2022/07/21 11:05:32;;;;;;;7.72;7.05;;;43.20;45.30;;;;;;5085800;28;20050;-81
2022/07/21 11:08:14;;;;;;;7.65;7.05;;;43.30;44.60;;;;;;5087382;28;20083;-81
2022/07/21 11:10:44;;;;;;;7.80;7.30;;;43.50;43.80;;;;;;5085712;28;20572;-81
2022/07/21 11:13:13;;;;;;;8.18;7.35;;;43.60;44.70;;;;;;5068132;28;20756;-81
2022/07/21 11:15:58;;;;;;;8.68;7.63;;;43.50;43.60;;;;;;5066960;28;20048;-81
2022/07/21 11:18:28;;;;;;;8.43;7.63;;;43.50;44.40;;;;;;5086133;28;20090;-81
2022/07/21 11:21:12;;;;;;;7.97;7.38;;;43.50;44.90;;;;;;5086565;28;20051;-81
2022/07/21 11:23:43;;;;;;;9.52;8.02;;;43.60;44.60;;;;;;5067579;28;20043;-81
2022/07/21 11:26:11;;;;;;;;;;;43.70;44.80;;;;;;5064718;28;20048;-81
2022/07/21 11:28:39;;;;;;;8.25;7.63;;;43.90;43.30;;;;;;5066262;28;19947;-80
2022/07/21 11:31:11;;;;;;;8.60;7.90;;;44.00;43.70;;;;;;5066519;28;20040;-80
2022/07/21 11:33:43;;;;;;;8.50;7.90;;;44.20;43.10;;;;;;5084431;28;20058;-81
2022/07/21 11:36:11;;;;;;;8.45;7.80;;;44.00;43.40;;;;;;5084470;28;20143;-81
2022/07/21 11:38:56;;;;;;;9.20;8.38;;;44.00;44.80;;;;;;5079760;28;20200;-82
2022/07/21 11:41:24;;;;;;;8.70;7.95;;;44.20;43.00;;;;;;5079881;28;20535;-81
2022/07/21 11:43:51;;;;;;;9.07;8.38;;;44.30;43.40;;;;;;5059303;28;20048;-80
2022/07/21 11:46:19;;;;;;;9.05;8.25;;;44.40;42.00;;;;;;5078386;28;20124;-81
2022/07/21 11:48:48;;;;;;;9.65;8.80;;;44.40;42.70;;;;;;5055808;28;20424;-80
2022/07/21 11:51:15;;;;;;;9.63;8.93;;;44.50;42.80;;;;;;5078483;28;20048;-81
2022/07/21 11:53:45;;;;;;;8.88;8.27;;;44.60;42.50;;;;;;5059942;28;20045;-81
2022/07/21 11:56:17;;;;;;;9.45;8.60;;;44.70;41.70;;;;;;5082949;28;20079;-81
2022/07/21 11:58:45;;;;;;;8.98;8.23;;;44.60;41.50;;;;;;5070331;28;20044;-80
2022/07/21 12:01:12;;;;;;;8.98;8.25;;;44.60;41.90;;;;;;5090394;28;20075;-81
2022/07/21 12:03:52;;;;;;;8.90;8.35;;;44.60;42.00;;;;;;5088674;28;20515;-81
2022/07/21 12:06:20;;;;;;;11.70;8.18;;;44.80;42.60;;;;;;5090220;28;20491;-81
2022/07/21 12:08:48;;;;;;;9.50;8.75;;;45.00;42.00;;;;;;5071216;28;20419;-81
2022/07/21 12:11:15;;;;;;;9.50;8.65;;;45.00;41.40;;;;;;5072230;28;20048;-81
2022/07/21 12:14:01;;;;;;;8.90;8.30;;;45.00;41.50;;;;;;5088735;28;20078;-80
2022/07/21 12:16:28;;;;;;;9.18;8.32;;;45.10;40.80;;;;;;5090652;28;20059;-81
2022/07/21 12:19:16;;;;;;;10.48;9.57;;;45.20;41.00;;;;;;5088471;28;20463;-81
2022/07/21 12:21:49;;;;;;;9.07;8.48;;;45.20;40.70;;;;;;5072359;28;20051;-82
2022/07/21 12:24:17;;;;;;;8.65;8.02;;;45.20;41.50;;;;;;5088255;28;20101;-81
2022/07/21 12:26:49;;;;;;;8.52;7.93;;;45.10;40.30;;;;;;5055106;28;20636;-81
2022/07/21 12:29:26;;;;;;;8.60;8.07;;;45.20;40.10;;;;;;5070179;28;20048;-81
2022/07/21 12:31:54;;;;;;;8.75;7.97;;;45.30;40.90;;;;;;5089606;28;20048;-81
2022/07/21 12:34:24;;;;;;;9.45;8.43;;;45.30;41.80;;;;;;5087836;28;20508;-81
2022/07/21 12:36:52;;;;;;;8.68;7.95;;;45.30;40.80;;;;;;5090412;28;20059;-80
2022/07/21 12:42:08;;;;;;;8.68;8.07;;;45.20;41.20;;;;;;5089244;28;20530;-81
2022/07/21 12:44:37;;;;;;;9.18;8.48;;;45.20;40.70;;;;;;5088315;28;20040;-81
2022/07/21 12:47:22;;;;;;;8.43;7.82;;;45.20;40.20;;;;;;5089683;28;20083;-81
2022/07/21 12:50:02;;;;;;;9.68;8.98;;;45.20;40.50;;;;;;5088432;28;20060;-82
2022/07/21 12:52:31;;;;;;;9.55;8.60;;;45.20;40.90;;;;;;5070252;28;20496;-81
2022/07/21 12:54:59;;;;;;;8.93;8.05;;;45.20;40.70;;;;;;5089070;28;20051;-81
2022/07/21 12:57:28;;;;;;;9.88;8.23;;;45.30;40.90;;;;;;5062606;28;20477;-81
2022/07/21 12:59:57;;;;;;;10.35;8.68;;;45.20;40.40;;;;;;5085432;28;20064;-81
2022/07/21 13:02:25;;;;;;;9.23;8.38;;;45.00;41.10;;;;;;5069019;28;20047;-81
2022/07/21 13:04:53;;;;;;;10.23;9.32;;;45.00;41.20;;;;;;5088005;28;20071;-82